createdAt,value
2022-08-11T00:01:34.323Z,32.92
2022-08-11T00:04:07.460Z,32.91
2022-08-11T00:06:38.064Z,32.85
2022-08-11T00:09:20.069Z,32.77
2022-08-11T00:11:54.103Z,32.75
2022-08-11T00:14:37.848Z,32.76
2022-08-11T00:17:12.168Z,32.76
2022-08-11T00:20:13.978Z,32.76
2022-08-11T00:22:30.867Z,32.72
2022-08-11T00:25:02.348Z,32.72
2022-08-11T00:27:34.848Z,32.71
2022-08-11T00:30:02.784Z,32.74
2022-08-11T00:32:30.904Z,32.73
2022-08-11T00:35:53.665Z,32.67
2022-08-11T00:37:54.704Z,32.68
2022-08-11T00:40:47.672Z,32.58
2022-08-11T00:43:20.298Z,32.57
2022-08-11T00:46:16.763Z,32.51
2022-08-11T00:49:13.081Z,32.46
2022-08-11T00:52:21.991Z,32.44
2022-08-11T00:55:01.083Z,32.42
2022-08-11T00:57:51.614Z,32.23
2022-08-11T01:00:25.052Z,32.36
2022-08-11T01:02:52.112Z,32.32
2022-08-11T01:05:56.844Z,32.29
2022-08-11T01:08:35.929Z,32.23
2022-08-11T01:11:23.640Z,32.21
2022-08-11T01:14:33.714Z,32.20
2022-08-11T01:17:32.394Z,32.16
2022-08-11T01:20:47.639Z,32.07
2022-08-11T01:23:23.495Z,32.02
2022-08-11T01:26:28.027Z,32.02
2022-08-11T01:29:17.096Z,32.00
2022-08-11T01:32:10.183Z,31.96
2022-08-11T01:35:05.304Z,31.95
2022-08-11T01:37:58.245Z,31.90
2022-08-11T01:40:38.938Z,31.87
2022-08-11T01:44:02.204Z,31.86
2022-08-11T01:46:44.032Z,31.82
2022-08-11T01:50:08.228Z,31.79
2022-08-11T01:52:43.359Z,31.75
2022-08-11T01:55:58.100Z,31.72
2022-08-11T01:58:43.875Z,31.72
2022-08-11T02:01:26.646Z,31.68
2022-08-11T02:04:44.621Z,31.66
2022-08-11T02:07:43.229Z,31.61
2022-08-11T02:11:06.207Z,31.56
2022-08-11T02:13:52.848Z,31.51
2022-08-11T02:16:44.619Z,31.53
2022-08-11T02:19:36.253Z,31.50
2022-08-11T02:22:48.398Z,31.48
2022-08-11T02:25:31.875Z,31.50
2022-08-11T02:28:29.099Z,31.46
2022-08-11T02:32:25.626Z,31.46
2022-08-11T02:34:44.093Z,31.42
2022-08-11T02:37:45.353Z,31.40
2022-08-11T02:40:22.322Z,31.41
2022-08-11T02:42:55.509Z,31.40
2022-08-11T02:45:42.113Z,31.36
2022-08-11T02:48:33.726Z,31.31
2022-08-11T02:51:22.536Z,31.24
2022-08-11T02:54:07.767Z,31.31
2022-08-11T02:56:47.252Z,31.28
2022-08-11T02:59:48.705Z,31.23
2022-08-11T03:02:35.103Z,31.24
2022-08-11T03:05:13.839Z,31.23
2022-08-11T03:07:40.988Z,31.21
2022-08-11T03:10:22.279Z,31.16
2022-08-11T03:13:15.576Z,31.15
2022-08-11T03:16:04.232Z,31.15
2022-08-11T03:18:51.749Z,31.16
2022-08-11T03:21:58.410Z,31.13
2022-08-11T03:24:26.379Z,31.12
2022-08-11T03:27:15.075Z,31.12
2022-08-11T03:30:05.856Z,31.10
2022-08-11T03:33:31.807Z,31.10
2022-08-11T03:37:15.347Z,31.03
2022-08-11T03:39:52.617Z,31.06
2022-08-11T03:42:41.711Z,30.99
2022-08-11T03:45:28.738Z,31.01
2022-08-11T03:48:09.754Z,31.04
2022-08-11T03:50:58.721Z,31.03
2022-08-11T03:53:44.054Z,30.99
2022-08-11T03:56:11.687Z,30.97
2022-08-11T03:58:47.283Z,30.90
2022-08-11T04:01:44.693Z,30.86
2022-08-11T04:04:45.413Z,30.88
2022-08-11T04:07:37.415Z,30.85
2022-08-11T04:10:13.602Z,30.83
2022-08-11T04:13:17.944Z,30.81
2022-08-11T04:16:11.515Z,30.76
2022-08-11T04:19:17.248Z,30.72
2022-08-11T04:22:15.574Z,30.65
2022-08-11T04:25:22.667Z,30.64
2022-08-11T04:27:49.710Z,30.59
2022-08-11T04:30:27.737Z,30.58
2022-08-11T04:33:34.381Z,30.54
2022-08-11T04:36:09.746Z,30.50
2022-08-11T04:39:20.415Z,30.43
2022-08-11T04:42:32.001Z,30.42
2022-08-11T04:45:39.208Z,30.40
2022-08-11T04:48:53.277Z,30.38
2022-08-11T04:52:16.712Z,30.33
2022-08-11T04:55:06.503Z,30.29
2022-08-11T04:58:10.774Z,30.24
2022-08-11T05:01:27.007Z,30.23
2022-08-11T05:04:28.315Z,30.24
2022-08-11T05:07:20.288Z,30.14
2022-08-11T05:10:29.493Z,30.12
2022-08-11T05:13:21.546Z,30.13
2022-08-11T05:16:17.863Z,30.13
2022-08-11T05:19:16.238Z,30.11
2022-08-11T05:22:13.454Z,30.12
2022-08-11T05:25:10.189Z,30.17
2022-08-11T05:28:04.580Z,30.15
2022-08-11T05:30:51.589Z,30.15
2022-08-11T05:33:49.153Z,30.16
2022-08-11T05:36:31.391Z,30.15
2022-08-11T05:39:21.810Z,30.12
2022-08-11T05:42:29.953Z,30.16
2022-08-11T05:45:58.140Z,30.18
2022-08-11T05:48:39.210Z,30.20
2022-08-11T05:51:30.416Z,30.27
2022-08-11T05:54:28.211Z,30.24
2022-08-11T05:57:00.208Z,30.26
2022-08-11T05:59:29.425Z,30.30
2022-08-11T06:02:02.494Z,30.29
2022-08-11T06:04:30.422Z,30.47
2022-08-11T06:06:59.433Z,30.50
2022-08-11T06:09:38.973Z,30.44
2022-08-11T06:12:19.295Z,30.45
2022-08-11T06:14:49.681Z,30.34
2022-08-11T06:17:24.379Z,30.47
2022-08-11T06:20:07.147Z,30.42
2022-08-11T06:22:35.444Z,30.43
2022-08-11T06:25:05.063Z,30.44
2022-08-11T06:27:35.719Z,30.44
2022-08-11T06:30:14.004Z,30.43
2022-08-11T06:32:46.738Z,30.45
2022-08-11T06:35:30.331Z,30.48
2022-08-11T06:38:16.425Z,30.35
2022-08-11T06:41:26.781Z,30.41
2022-08-11T06:44:51.830Z,30.43
2022-08-11T06:47:21.093Z,30.51
2022-08-11T06:50:07.732Z,30.54
2022-08-11T06:52:37.041Z,30.59
2022-08-11T06:55:55.542Z,30.62
2022-08-11T06:58:48.509Z,30.67
2022-08-11T07:01:24.940Z,30.67
2022-08-11T07:04:03.048Z,30.78
2022-08-11T07:06:41.630Z,30.88
2022-08-11T07:10:02.911Z,30.90
2022-08-11T07:13:01.833Z,30.96
2022-08-11T07:16:12.485Z,31.00
2022-08-11T07:18:53.036Z,31.04
2022-08-11T07:22:02.821Z,31.06
2022-08-11T07:25:08.686Z,31.12
2022-08-11T07:28:15.427Z,31.20
2022-08-11T07:30:43.550Z,31.23
2022-08-11T07:34:05.565Z,31.25
2022-08-11T07:36:05.406Z,31.38
2022-08-11T07:38:47.385Z,31.41
2022-08-11T07:41:16.876Z,31.47
2022-08-11T07:43:49.293Z,31.50
2022-08-11T07:46:36.964Z,31.54
2022-08-11T07:49:24.940Z,31.56
2022-08-11T07:52:12.799Z,31.59
2022-08-11T07:54:41.877Z,31.78
2022-08-11T07:58:08.723Z,31.82
2022-08-11T08:00:40.248Z,31.97
2022-08-11T08:03:27.389Z,32.05
2022-08-11T08:06:35.513Z,32.20
2022-08-11T08:09:27.484Z,32.20
2022-08-11T08:12:15.728Z,32.25
2022-08-11T08:15:08.929Z,32.48
2022-08-11T08:18:09.886Z,32.61
2022-08-11T08:21:09.780Z,32.83
2022-08-11T08:23:38.738Z,32.95
2022-08-11T08:26:31.399Z,33.21
2022-08-11T08:29:22.354Z,33.29
2022-08-11T08:32:11.044Z,33.57
2022-08-11T08:34:43.707Z,33.70
2022-08-11T08:37:16.057Z,33.99
2022-08-11T08:40:06.616Z,34.34
2022-08-11T08:42:45.407Z,34.63
2022-08-11T08:45:16.544Z,34.59
2022-08-11T08:47:53.577Z,34.31
2022-08-11T08:50:27.993Z,34.50
2022-08-11T08:53:06.007Z,34.84
2022-08-11T08:55:35.627Z,34.37
2022-08-11T08:58:03.157Z,34.96
2022-08-11T09:00:44.001Z,35.04
2022-08-11T09:03:38.908Z,35.22
2022-08-11T09:06:09.794Z,35.56
2022-08-11T09:08:40.988Z,35.06
2022-08-11T09:11:30.810Z,35.15
2022-08-11T09:14:03.214Z,35.31
2022-08-11T09:16:39.501Z,35.33
2022-08-11T09:19:11.192Z,35.45
2022-08-11T09:21:48.236Z,35.05
2022-08-11T09:24:40.170Z,35.37
2022-08-11T09:27:08.746Z,35.84
2022-08-11T09:29:39.042Z,35.29
2022-08-11T09:32:07.423Z,35.46
2022-08-11T09:34:36.902Z,35.51
2022-08-11T09:37:28.476Z,35.80
2022-08-11T09:40:33.789Z,35.33
2022-08-11T09:43:25.546Z,35.82
2022-08-11T09:45:57.896Z,35.19
2022-08-11T09:48:27.627Z,35.95
2022-08-11T09:50:59.159Z,35.91
2022-08-11T09:53:35.711Z,36.15
2022-08-11T09:56:33.886Z,36.08
2022-08-11T09:59:04.060Z,35.74
2022-08-11T10:01:36.207Z,35.56
2022-08-11T10:04:15.680Z,35.36
2022-08-11T10:07:05.538Z,35.37
2022-08-11T10:09:59.641Z,35.85
2022-08-11T10:12:35.290Z,35.79
2022-08-11T10:15:23.644Z,35.68
2022-08-11T10:18:15.914Z,35.84
2022-08-11T10:20:45.685Z,35.76
2022-08-11T10:23:32.608Z,35.83
2022-08-11T10:26:18.686Z,35.86
2022-08-11T10:29:09.869Z,35.78
2022-08-11T10:31:57.426Z,36.03
2022-08-11T10:34:29.149Z,35.43
2022-08-11T10:36:58.137Z,35.45
2022-08-11T10:39:27.386Z,35.44
2022-08-11T10:42:21.023Z,34.97
2022-08-11T10:45:25.143Z,35.31
2022-08-11T10:47:55.746Z,35.00
2022-08-11T10:50:43.177Z,35.29
2022-08-11T10:53:29.276Z,35.26
2022-08-11T10:56:17.758Z,36.04
2022-08-11T10:58:52.191Z,35.70
2022-08-11T11:01:26.119Z,36.18
2022-08-11T11:03:59.104Z,35.61
2022-08-11T11:06:56.753Z,36.07
2022-08-11T11:09:35.333Z,35.88
2022-08-11T11:12:43.813Z,35.72
2022-08-11T11:15:31.991Z,35.56
2022-08-11T11:18:09.542Z,36.55
2022-08-11T11:20:47.344Z,35.90
2022-08-11T11:23:18.852Z,36.38
2022-08-11T11:26:11.334Z,36.43
2022-08-11T11:28:56.759Z,35.95
2022-08-11T11:31:48.111Z,36.40
2022-08-11T11:35:09.175Z,37.07
2022-08-11T11:37:40.570Z,36.88
2022-08-11T11:40:14.099Z,36.61
2022-08-11T11:42:44.121Z,36.40
2022-08-11T11:45:22.806Z,35.59
2022-08-11T11:47:54.777Z,35.39
2022-08-11T11:50:35.007Z,36.02
2022-08-11T11:53:06.035Z,35.38
2022-08-11T11:55:34.453Z,35.48
2022-08-11T11:58:22.838Z,35.51
2022-08-11T12:01:10.939Z,35.46
2022-08-11T12:03:39.845Z,35.72
2022-08-11T12:06:09.718Z,35.90
2022-08-11T12:08:37.950Z,35.95
2022-08-11T12:11:27.996Z,36.39
2022-08-11T12:14:02.346Z,36.47
2022-08-11T12:16:32.981Z,36.54
2022-08-11T12:19:11.851Z,36.54
2022-08-11T12:22:04.146Z,36.66
2022-08-11T12:24:52.880Z,36.48
2022-08-11T12:27:24.232Z,36.89
2022-08-11T12:30:11.548Z,36.49
2022-08-11T12:32:43.682Z,36.87
2022-08-11T12:35:14.620Z,36.37
2022-08-11T12:37:47.894Z,36.44
2022-08-11T12:41:11.928Z,35.84
2022-08-11T12:43:57.225Z,36.01
2022-08-11T12:46:33.188Z,36.22
2022-08-11T12:49:33.296Z,36.02
2022-08-11T12:52:15.515Z,35.61
2022-08-11T12:55:13.523Z,36.15
2022-08-11T12:58:06.436Z,35.77
2022-08-11T13:00:52.616Z,36.05
2022-08-11T13:03:39.682Z,35.68
2022-08-11T13:06:08.011Z,35.91
2022-08-11T13:08:38.423Z,35.27
2022-08-11T13:11:25.500Z,35.41
2022-08-11T13:14:15.378Z,36.52
2022-08-11T13:17:04.383Z,36.53
2022-08-11T13:19:33.231Z,35.87
2022-08-11T13:22:02.833Z,36.64
2022-08-11T13:24:34.412Z,35.94
2022-08-11T13:27:03.958Z,36.08
2022-08-11T13:29:32.716Z,35.65
2022-08-11T13:32:00.996Z,36.22
2022-08-11T13:34:33.100Z,35.93
2022-08-11T13:37:04.679Z,35.74
2022-08-11T13:39:35.862Z,35.88
2022-08-11T13:42:05.964Z,35.75
2022-08-11T13:44:38.861Z,35.96
2022-08-11T13:47:09.175Z,36.45
2022-08-11T13:49:39.682Z,36.80
2022-08-11T13:52:17.647Z,36.93
2022-08-11T13:54:48.994Z,36.71
2022-08-11T13:58:08.875Z,37.06
2022-08-11T14:00:23.590Z,36.75
2022-08-11T14:02:58.366Z,36.92
2022-08-11T14:05:45.908Z,36.48
2022-08-11T14:08:37.584Z,36.76
2022-08-11T14:12:22.741Z,36.67
2022-08-11T14:14:22.975Z,36.11
2022-08-11T14:16:53.446Z,36.37
2022-08-11T14:19:26.548Z,36.53
2022-08-11T14:22:11.769Z,36.32
2022-08-11T14:24:49.698Z,36.14
2022-08-11T14:28:32.596Z,36.20
2022-08-11T14:30:29.297Z,36.09
2022-08-11T14:33:00.500Z,36.57
2022-08-11T14:35:44.422Z,36.25
2022-08-11T14:38:15.014Z,36.04
2022-08-11T14:41:03.177Z,36.36
2022-08-11T14:44:04.865Z,35.74
2022-08-11T14:46:57.783Z,35.79
2022-08-11T14:49:26.601Z,35.42
2022-08-11T14:51:57.939Z,35.22
2022-08-11T14:54:45.859Z,35.27
2022-08-11T14:57:18.262Z,35.03
2022-08-11T15:00:08.425Z,35.29
2022-08-11T15:02:58.478Z,34.41
2022-08-11T15:05:26.809Z,35.01
2022-08-11T15:07:58.951Z,35.28
2022-08-11T15:10:27.096Z,34.61
2022-08-11T15:12:54.682Z,34.86
2022-08-11T15:15:42.509Z,34.67
2022-08-11T15:18:17.005Z,33.92
2022-08-11T15:21:03.213Z,34.00
2022-08-11T15:23:50.212Z,34.11
2022-08-11T15:26:43.237Z,34.53
2022-08-11T15:29:30.820Z,35.00
2022-08-11T15:32:17.754Z,34.91
2022-08-11T15:35:08.040Z,35.22
2022-08-11T15:37:37.833Z,35.34
2022-08-11T15:40:48.181Z,34.84
2022-08-11T15:43:34.114Z,34.77
2022-08-11T15:46:08.299Z,34.21
2022-08-11T15:48:47.593Z,34.48
2022-08-11T15:51:17.774Z,34.77
2022-08-11T15:53:58.788Z,34.66
2022-08-11T15:56:29.584Z,34.83
2022-08-11T15:59:41.683Z,34.55
2022-08-11T16:02:16.385Z,34.08
2022-08-11T16:04:46.935Z,34.15
2022-08-11T16:07:16.887Z,34.08
2022-08-11T16:09:54.024Z,33.82
2022-08-11T16:12:30.612Z,33.88
2022-08-11T16:15:23.662Z,33.87
2022-08-11T16:17:56.632Z,33.92
2022-08-11T16:20:25.176Z,34.11
2022-08-11T16:23:02.014Z,34.27
2022-08-11T16:27:01.642Z,34.21
2022-08-11T16:28:23.985Z,33.98
2022-08-11T16:30:56.745Z,34.01
2022-08-11T16:33:50.259Z,33.80
2022-08-11T16:36:34.262Z,33.62
2022-08-11T16:39:03.025Z,33.70
2022-08-11T16:41:51.685Z,34.19
2022-08-11T16:44:40.441Z,33.99
2022-08-11T16:47:11.716Z,33.92
2022-08-11T16:49:53.271Z,34.07
2022-08-11T16:52:22.266Z,34.23
2022-08-11T16:54:49.721Z,34.40
2022-08-11T16:57:43.940Z,34.14
2022-08-11T17:00:16.720Z,34.44
2022-08-11T17:03:12.545Z,34.12
2022-08-11T17:06:08.803Z,34.30
2022-08-11T17:09:05.403Z,34.13
2022-08-11T17:11:57.325Z,34.35
2022-08-11T17:14:37.300Z,34.06
2022-08-11T17:17:30.244Z,34.35
2022-08-11T17:20:41.340Z,34.54
2022-08-11T17:23:13.237Z,34.46
2022-08-11T17:26:03.729Z,34.51
2022-08-11T17:28:34.712Z,34.07
2022-08-11T17:31:22.465Z,34.56
2022-08-11T17:34:11.108Z,34.97
2022-08-11T17:36:43.169Z,35.14
2022-08-11T17:39:17.772Z,34.80
2022-08-11T17:42:04.354Z,34.79
2022-08-11T17:44:52.370Z,34.91
2022-08-11T17:47:39.279Z,35.02
2022-08-11T17:50:16.743Z,35.12
2022-08-11T17:53:05.193Z,35.12
2022-08-11T17:55:53.891Z,35.22
2022-08-11T17:58:40.548Z,34.95
2022-08-11T18:01:10.750Z,34.47
2022-08-11T18:03:40.912Z,34.70
2022-08-11T18:06:12.765Z,34.81
2022-08-11T18:09:07.036Z,34.50
2022-08-11T18:12:11.131Z,34.14
2022-08-11T18:15:03.341Z,34.20
2022-08-11T18:17:53.575Z,34.08
2022-08-11T18:20:40.116Z,34.14
2022-08-11T18:23:43.376Z,34.07
2022-08-11T18:26:38.331Z,34.13
2022-08-11T18:29:26.846Z,34.30
2022-08-11T18:32:21.291Z,34.14
2022-08-11T18:35:11.505Z,33.92
2022-08-11T18:38:04.588Z,33.88
2022-08-11T18:40:51.850Z,33.86
2022-08-11T18:43:46.290Z,33.78
2022-08-11T18:46:36.894Z,33.85
2022-08-11T18:50:01.920Z,33.70
2022-08-11T18:52:37.896Z,33.74
2022-08-11T18:55:32.557Z,33.71
2022-08-11T18:58:21.846Z,33.72
2022-08-11T19:01:09.002Z,33.81
2022-08-11T19:03:56.257Z,33.89
2022-08-11T19:06:56.983Z,33.87
2022-08-11T19:09:44.594Z,33.64
2022-08-11T19:12:31.924Z,33.54
2022-08-11T19:15:21.638Z,33.33
2022-08-11T19:18:08.647Z,33.28
2022-08-11T19:20:56.265Z,33.18
2022-08-11T19:23:55.395Z,32.81
2022-08-11T19:26:43.067Z,32.78
2022-08-11T19:30:04.865Z,32.69
2022-08-11T19:32:38.454Z,32.71
2022-08-11T19:35:25.622Z,32.99
2022-08-11T19:38:13.992Z,32.81
2022-08-11T19:41:01.241Z,33.15
2022-08-11T19:43:49.357Z,32.82
2022-08-11T19:46:38.805Z,32.86
2022-08-11T19:49:26.034Z,32.98
2022-08-11T19:52:12.818Z,32.98
2022-08-11T19:55:04.234Z,33.05
2022-08-11T19:57:50.953Z,33.30
2022-08-11T20:00:38.581Z,33.35
2022-08-11T20:03:27.989Z,33.25
2022-08-11T20:06:16.540Z,33.13
2022-08-11T20:09:04.509Z,33.06
2022-08-11T20:11:56.001Z,32.90
2022-08-11T20:14:47.948Z,32.95
2022-08-11T20:17:34.424Z,33.08
2022-08-11T20:20:24.044Z,33.13
2022-08-11T20:23:12.769Z,32.90
2022-08-11T20:26:27.774Z,32.74
2022-08-11T20:29:13.290Z,32.93
2022-08-11T20:32:01.652Z,32.88
2022-08-11T20:34:59.602Z,32.93
2022-08-11T20:37:51.229Z,32.84
2022-08-11T20:40:42.869Z,32.63
2022-08-11T20:44:06.674Z,32.33
2022-08-11T20:46:44.148Z,32.69
2022-08-11T20:49:45.941Z,32.91
2022-08-11T20:52:39.712Z,32.99
2022-08-11T20:55:46.398Z,33.00
2022-08-11T21:01:45.888Z,32.55
2022-08-11T21:04:32.811Z,32.48
2022-08-11T21:07:28.377Z,32.49
2022-08-11T21:10:23.385Z,32.11
2022-08-11T21:13:26.140Z,32.71
2022-08-11T21:16:27.279Z,31.89
2022-08-11T21:19:55.037Z,32.20
2022-08-11T21:22:35.968Z,32.30
2022-08-11T21:25:25.884Z,32.23
2022-08-11T21:28:12.697Z,32.26
2022-08-11T21:30:59.181Z,32.31
2022-08-11T21:33:51.432Z,32.41
2022-08-11T21:36:39.625Z,32.22
2022-08-11T21:39:28.984Z,32.00
2022-08-11T21:42:16.701Z,32.26
2022-08-11T21:45:04.145Z,32.32
2022-08-11T21:47:56.066Z,32.10
2022-08-11T21:50:48.048Z,32.31
2022-08-11T21:53:34.391Z,32.50
2022-08-11T21:56:22.060Z,32.33
2022-08-11T21:59:16.923Z,32.01
2022-08-11T22:02:05.378Z,32.31
2022-08-11T22:04:55.154Z,32.53
2022-08-11T22:07:42.623Z,32.59
2022-08-11T22:10:41.898Z,32.66
2022-08-11T22:13:34.201Z,32.66
2022-08-11T22:16:24.383Z,32.71
2022-08-11T22:19:16.860Z,32.80
2022-08-11T22:22:06.191Z,32.87
2022-08-11T22:24:53.980Z,32.78
2022-08-11T22:27:41.465Z,32.64
2022-08-11T22:30:33.755Z,32.61
2022-08-11T22:33:28.759Z,32.72
2022-08-11T22:36:16.649Z,32.83
2022-08-11T22:39:04.842Z,32.72
2022-08-11T22:41:53.053Z,32.60
2022-08-11T22:44:38.773Z,32.83
2022-08-11T22:47:38.417Z,32.89
2022-08-11T22:50:29.038Z,32.83
2022-08-11T22:53:16.520Z,32.86
2022-08-11T22:56:02.849Z,32.79
2022-08-11T22:58:49.782Z,32.86
2022-08-11T23:01:37.586Z,32.83
2022-08-11T23:04:25.648Z,32.93
2022-08-11T23:07:12.213Z,32.93
2022-08-11T23:09:59.326Z,32.81
2022-08-11T23:12:46.924Z,32.78
2022-08-11T23:15:33.199Z,32.79
2022-08-11T23:18:21.185Z,32.63
2022-08-11T23:21:07.574Z,32.26
2022-08-11T23:23:54.341Z,32.51
2022-08-11T23:26:42.410Z,32.24
2022-08-11T23:29:30.330Z,32.53
2022-08-11T23:32:16.291Z,32.56
2022-08-11T23:35:37.883Z,32.32
2022-08-11T23:38:15.321Z,32.58
2022-08-11T23:41:01.016Z,32.49
2022-08-11T23:43:46.458Z,32.61
2022-08-11T23:46:31.945Z,32.44
2022-08-11T23:49:22.550Z,32.45
2022-08-11T23:52:11.239Z,32.52
2022-08-11T23:54:57.103Z,32.32
2022-08-11T23:57:47.801Z,32.40
